Buskirk, New York
Current Conditions -  °F | °C
As of 7:54 AM on Sunday 21 Dec 2014 (Local Time) from KDDH Reporting Station
Haze Haze  
Wind Chill: -4°   Ceiling: 500
Heat Index: -4°   Visibility: 1.2mi
Dew Point: -6°   Wind: 0mph
Humidity: 88%   Direction: NA
Pressure: 30.29"   Gusts: NA
Location:  42.95°N, 73.43°W
Report Text: KDDH 211254Z AUTO 00000KT 1 1/4SM BR BKN005 OVC027 M04/M06 A3029 RMK AO2 SLP268 P0001 I1000 T10391056
Loading
Personal Weather Stations






























Interactive Weather Map New forecast layout! Learn more

10-Day Weather Forecast

Advertisements
Track Severe Weather on mobile